createdAt,value
2019-05-02T00:10:01.218Z,95901.80
2019-05-02T00:25:11.068Z,95899.73
2019-05-02T00:40:20.126Z,95897.16
2019-05-02T00:55:28.908Z,95889.92
2019-05-02T01:10:37.376Z,95870.83
2019-05-02T01:25:47.410Z,95872.36
2019-05-02T01:40:55.869Z,95878.17
2019-05-02T01:56:02.914Z,95876.65
2019-05-02T02:11:12.254Z,95871.19
2019-05-02T02:26:23.589Z,95866.23
2019-05-02T02:41:30.659Z,95856.98
2019-05-02T02:56:40.448Z,95853.72
2019-05-02T03:11:49.478Z,95856.78
2019-05-02T03:26:59.595Z,95857.01
2019-05-02T03:42:07.488Z,95865.34
2019-05-02T03:57:14.190Z,95868.20
2019-05-02T04:12:22.999Z,95871.51
2019-05-02T04:27:34.209Z,95866.44
2019-05-02T04:42:40.690Z,95877.83
2019-05-02T04:57:51.047Z,95892.53
2019-05-02T05:12:57.305Z,95900.21
2019-05-02T05:28:06.094Z,95897.66
2019-05-02T05:43:15.882Z,95890.97
2019-05-02T05:58:22.367Z,95885.55
2019-05-02T06:13:29.446Z,95877.33
2019-05-02T06:28:36.311Z,95879.98
2019-05-02T06:43:46.535Z,95853.27
2019-05-02T06:58:54.217Z,95840.55
2019-05-02T07:14:12.421Z,95829.21
2019-05-02T07:29:09.698Z,95814.66
2019-05-02T07:44:16.387Z,95818.64
2019-05-02T07:59:25.147Z,95811.91
2019-05-02T08:14:34.654Z,95803.22
2019-05-02T08:30:35.270Z,95798.12
2019-05-02T08:45:39.642Z,95797.53
2019-05-02T09:00:47.697Z,95786.63
2019-05-02T09:15:56.089Z,95774.23
2019-05-02T09:31:06.647Z,95761.56
2019-05-02T09:46:16.794Z,95763.37
2019-05-02T10:01:37.182Z,95759.94
2019-05-02T10:16:45.797Z,95729.80
2019-05-02T10:31:52.888Z,95716.16
2019-05-02T10:47:00.039Z,95724.33
2019-05-02T11:02:09.573Z,95690.70
2019-05-02T11:17:22.628Z,95680.02
2019-05-02T11:32:28.809Z,95670.56
2019-05-02T11:47:35.631Z,95668.41
2019-05-02T12:02:42.009Z,95661.45
2019-05-02T12:17:48.955Z,95668.15
2019-05-02T12:32:55.915Z,95657.49
2019-05-02T12:48:02.901Z,95665.55
2019-05-02T13:03:12.008Z,95654.23
2019-05-02T13:18:25.372Z,95643.86
2019-05-02T13:33:35.839Z,95638.77
2019-05-02T13:48:42.747Z,95640.44
2019-05-02T14:03:49.494Z,95608.83
2019-05-02T14:18:57.207Z,95593.67
2019-05-02T14:34:21.767Z,95609.48
2019-05-02T14:49:28.760Z,95583.04
2019-05-02T15:04:38.209Z,95594.92
2019-05-02T15:19:43.822Z,95593.27
2019-05-02T15:34:55.819Z,95593.84
2019-05-02T15:50:03.027Z,95584.34
2019-05-02T16:05:11.881Z,95595.11
2019-05-02T16:20:33.803Z,95580.41
2019-05-02T16:35:42.008Z,95577.76
2019-05-02T16:50:50.201Z,95585.53
2019-05-02T17:05:56.980Z,95595.53
2019-05-02T17:21:04.600Z,95598.23
2019-05-02T17:36:11.710Z,95605.95
2019-05-02T17:51:33.920Z,95621.47
2019-05-02T18:06:38.479Z,95628.51
2019-05-02T18:21:45.959Z,95642.98
2019-05-02T18:36:57.489Z,95653.85
2019-05-02T18:52:02.117Z,95673.77
2019-05-02T19:07:14.312Z,95687.73
2019-05-02T19:22:18.507Z,95693.02
2019-05-02T19:37:25.874Z,95692.02
2019-05-02T19:52:38.798Z,95690.65
2019-05-02T20:07:42.550Z,95683.18
2019-05-02T20:22:49.236Z,95685.56
2019-05-02T20:37:55.931Z,95680.80
2019-05-02T20:53:04.249Z,95671.14
2019-05-02T21:08:10.802Z,95680.92
2019-05-02T21:23:18.450Z,95691.73
2019-05-02T21:38:25.937Z,95695.45
2019-05-02T21:53:56.036Z,95681.55
2019-05-02T22:08:59.513Z,95685.72
2019-05-02T22:24:11.305Z,95692.83
2019-05-02T22:39:16.320Z,95694.74
2019-05-02T22:54:30.229Z,95676.61
2019-05-02T23:09:33.334Z,95704.49
2019-05-02T23:24:53.974Z,95713.27
2019-05-02T23:40:02.124Z,95711.65
2019-05-02T23:55:12.253Z,95708.36
